sensor_id;sensor_type;location;lat;lon;timestamp;pressure;altitude;pressure_sealevel;temperature;humidity
24306;BME280;12423;48.768;8.850;2022-12-07T00:01:32;97023.66;;;3.18;100.00
24306;BME280;12423;48.768;8.850;2022-12-07T00:03:34;97027.22;;;3.17;100.00
24306;BME280;12423;48.768;8.850;2022-12-07T00:05:35;97028.00;;;3.19;100.00
24306;BME280;12423;48.768;8.850;2022-12-07T00:07:35;97030.66;;;3.19;100.00
24306;BME280;12423;48.768;8.850;2022-12-07T00:09:36;97021.94;;;3.17;100.00
24306;BME280;12423;48.768;8.850;2022-12-07T00:11:37;97027.03;;;3.20;100.00
24306;BME280;12423;48.768;8.850;2022-12-07T00:13:39;97022.72;;;3.19;100.00
24306;BME280;12423;48.768;8.850;2022-12-07T00:15:40;97017.63;;;3.16;100.00
24306;BME280;12423;48.768;8.850;2022-12-07T00:17:41;97026.72;;;3.10;100.00
24306;BME280;12423;48.768;8.850;2022-12-07T00:19:42;97017.88;;;3.11;100.00
24306;BME280;12423;48.768;8.850;2022-12-07T00:21:43;97029.28;;;3.11;100.00
24306;BME280;12423;48.768;8.850;2022-12-07T00:23:45;97021.72;;;3.05;100.00
24306;BME280;12423;48.768;8.850;2022-12-07T00:25:46;97019.66;;;3.10;100.00
24306;BME280;12423;48.768;8.850;2022-12-07T00:27:49;97017.69;;;3.14;100.00
24306;BME280;12423;48.768;8.850;2022-12-07T00:29:51;97011.75;;;3.10;100.00
24306;BME280;12423;48.768;8.850;2022-12-07T00:31:51;97012.09;;;3.04;100.00
24306;BME280;12423;48.768;8.850;2022-12-07T00:33:52;97020.00;;;3.04;100.00
24306;BME280;12423;48.768;8.850;2022-12-07T00:35:57;97022.56;;;3.06;100.00
24306;BME280;12423;48.768;8.850;2022-12-07T00:37:58;97018.38;;;3.02;100.00
24306;BME280;12423;48.768;8.850;2022-12-07T00:39:59;97015.66;;;3.03;100.00
24306;BME280;12423;48.768;8.850;2022-12-07T00:42:00;97015.41;;;2.92;100.00
24306;BME280;12423;48.768;8.850;2022-12-07T00:44:01;97019.91;;;3.06;100.00
24306;BME280;12423;48.768;8.850;2022-12-07T00:46:03;97017.88;;;3.11;100.00
24306;BME280;12423;48.768;8.850;2022-12-07T00:48:04;97015.16;;;3.12;100.00
24306;BME280;12423;48.768;8.850;2022-12-07T00:50:05;97011.75;;;3.10;100.00
24306;BME280;12423;48.768;8.850;2022-12-07T00:52:06;97009.19;;;3.09;100.00
24306;BME280;12423;48.768;8.850;2022-12-07T00:54:07;97014.81;;;3.03;100.00
24306;BME280;12423;48.768;8.850;2022-12-07T00:58:11;97007.97;;;2.99;100.00
24306;BME280;12423;48.768;8.850;2022-12-07T01:00:13;97010.75;;;2.97;100.00
24306;BME280;12423;48.768;8.850;2022-12-07T01:02:13;97021.09;;;3.00;100.00
24306;BME280;12423;48.768;8.850;2022-12-07T01:04:14;97022.06;;;2.99;100.00
24306;BME280;12423;48.768;8.850;2022-12-07T01:06:17;97024.53;;;3.02;100.00
24306;BME280;12423;48.768;8.850;2022-12-07T01:08:19;97019.34;;;3.01;100.00
24306;BME280;12423;48.768;8.850;2022-12-07T01:10:20;97026.16;;;2.89;100.00
24306;BME280;12423;48.768;8.850;2022-12-07T01:12:21;97030.31;;;2.93;100.00
24306;BME280;12423;48.768;8.850;2022-12-07T01:14:22;97020.59;;;2.93;100.00
24306;BME280;12423;48.768;8.850;2022-12-07T01:16:25;97018.66;;;2.97;100.00
24306;BME280;12423;48.768;8.850;2022-12-07T01:18:31;97023.06;;;2.97;100.00
24306;BME280;12423;48.768;8.850;2022-12-07T01:20:33;97022.97;;;2.98;100.00
24306;BME280;12423;48.768;8.850;2022-12-07T01:22:39;97023.41;;;3.06;100.00
24306;BME280;12423;48.768;8.850;2022-12-07T01:24:41;97025.53;;;3.00;100.00
24306;BME280;12423;48.768;8.850;2022-12-07T01:26:42;97022.91;;;3.00;100.00
24306;BME280;12423;48.768;8.850;2022-12-07T01:28:43;97027.50;;;2.96;100.00
24306;BME280;12423;48.768;8.850;2022-12-07T01:30:44;97024.28;;;2.91;100.00
24306;BME280;12423;48.768;8.850;2022-12-07T01:32:45;97023.75;;;3.00;100.00
24306;BME280;12423;48.768;8.850;2022-12-07T01:34:48;97029.97;;;2.83;100.00
24306;BME280;12423;48.768;8.850;2022-12-07T01:36:48;97026.91;;;2.91;100.00
24306;BME280;12423;48.768;8.850;2022-12-07T01:38:52;97029.13;;;2.83;100.00
24306;BME280;12423;48.768;8.850;2022-12-07T01:40:55;97031.84;;;2.97;100.00
24306;BME280;12423;48.768;8.850;2022-12-07T01:42:56;97031.84;;;2.97;100.00
24306;BME280;12423;48.768;8.850;2022-12-07T01:47:36;97042.22;;;3.00;100.00
24306;BME280;12423;48.768;8.850;2022-12-07T01:49:46;97043.16;;;2.99;100.00
24306;BME280;12423;48.768;8.850;2022-12-07T01:51:51;97029.97;;;2.99;100.00
24306;BME280;12423;48.768;8.850;2022-12-07T01:53:53;97030.81;;;3.00;100.00
24306;BME280;12423;48.768;8.850;2022-12-07T01:55:56;97040.38;;;3.02;100.00
24306;BME280;12423;48.768;8.850;2022-12-07T01:57:57;97030.47;;;3.06;100.00
24306;BME280;12423;48.768;8.850;2022-12-07T01:59:59;97036.44;;;3.09;100.00
24306;BME280;12423;48.768;8.850;2022-12-07T02:02:25;97033.38;;;3.01;100.00
24306;BME280;12423;48.768;8.850;2022-12-07T02:04:28;97035.16;;;3.01;100.00
24306;BME280;12423;48.768;8.850;2022-12-07T02:06:30;97033.69;;;2.95;100.00
24306;BME280;12423;48.768;8.850;2022-12-07T02:08:31;97033.88;;;2.92;100.00
24306;BME280;12423;48.768;8.850;2022-12-07T02:10:32;97035.59;;;2.93;100.00
24306;BME280;12423;48.768;8.850;2022-12-07T02:12:34;97032.84;;;2.94;100.00
24306;BME280;12423;48.768;8.850;2022-12-07T02:14:35;97035.34;;;2.98;100.00
24306;BME280;12423;48.768;8.850;2022-12-07T02:16:54;97031.84;;;2.97;100.00
24306;BME280;12423;48.768;8.850;2022-12-07T02:29:23;97029.38;;;2.94;100.00
24306;BME280;12423;48.768;8.850;2022-12-07T02:31:25;97025.88;;;2.93;100.00
24306;BME280;12423;48.768;8.850;2022-12-07T02:33:34;97023.31;;;2.92;100.00
24306;BME280;12423;48.768;8.850;2022-12-07T02:35:42;97030.13;;;2.96;100.00
24306;BME280;12423;48.768;8.850;2022-12-07T02:40:38;97024.59;;;2.85;100.00
24306;BME280;12423;48.768;8.850;2022-12-07T02:42:46;97026.81;;;2.92;100.00
24306;BME280;12423;48.768;8.850;2022-12-07T02:44:48;97016.53;;;2.88;100.00
24306;BME280;12423;48.768;8.850;2022-12-07T02:47:01;97014.63;;;2.90;100.00
24306;BME280;12423;48.768;8.850;2022-12-07T02:49:04;97014.81;;;2.87;100.00
24306;BME280;12423;48.768;8.850;2022-12-07T02:51:05;97019.25;;;2.86;100.00
24306;BME280;12423;48.768;8.850;2022-12-07T02:53:33;97010.66;;;2.83;100.00
24306;BME280;12423;48.768;8.850;2022-12-07T02:55:39;97012.25;;;2.85;100.00
24306;BME280;12423;48.768;8.850;2022-12-07T02:58:13;97004.88;;;2.76;100.00
24306;BME280;12423;48.768;8.850;2022-12-07T03:00:17;97001.19;;;2.79;100.00
24306;BME280;12423;48.768;8.850;2022-12-07T03:06:50;97010.72;;;2.65;100.00
24306;BME280;12423;48.768;8.850;2022-12-07T03:09:11;97004.16;;;2.56;100.00
24306;BME280;12423;48.768;8.850;2022-12-07T03:11:17;97007.13;;;2.50;100.00
24306;BME280;12423;48.768;8.850;2022-12-07T03:15:39;97006.97;;;2.53;100.00
24306;BME280;12423;48.768;8.850;2022-12-07T03:17:44;97008.94;;;2.50;100.00
24306;BME280;12423;48.768;8.850;2022-12-07T03:19:49;97004.31;;;2.53;100.00
24306;BME280;12423;48.768;8.850;2022-12-07T03:22:00;96996.00;;;2.61;100.00
24306;BME280;12423;48.768;8.850;2022-12-07T03:24:06;96995.66;;;2.67;100.00
24306;BME280;12423;48.768;8.850;2022-12-07T03:26:11;96994.97;;;2.64;100.00
24306;BME280;12423;48.768;8.850;2022-12-07T03:28:18;96985.88;;;2.69;100.00
24306;BME280;12423;48.768;8.850;2022-12-07T03:30:32;97000.59;;;2.73;100.00
24306;BME280;12423;48.768;8.850;2022-12-07T03:32:40;96996.59;;;2.66;100.00
24306;BME280;12423;48.768;8.850;2022-12-07T03:34:47;96993.34;;;2.77;100.00
24306;BME280;12423;48.768;8.850;2022-12-07T03:36:56;96995.22;;;2.75;100.00
24306;BME280;12423;48.768;8.850;2022-12-07T03:39:08;96987.94;;;2.64;100.00
24306;BME280;12423;48.768;8.850;2022-12-07T03:41:23;96988.69;;;2.66;100.00
24306;BME280;12423;48.768;8.850;2022-12-07T03:43:25;96996.44;;;2.69;100.00
24306;BME280;12423;48.768;8.850;2022-12-07T03:45:44;96999.91;;;2.70;100.00
24306;BME280;12423;48.768;8.850;2022-12-07T03:50:36;96990.81;;;2.75;100.00
24306;BME280;12423;48.768;8.850;2022-12-07T03:52:42;96997.13;;;2.73;100.00
24306;BME280;12423;48.768;8.850;2022-12-07T03:55:06;96992.09;;;2.68;100.00
24306;BME280;12423;48.768;8.850;2022-12-07T03:57:10;96982.88;;;2.75;100.00
24306;BME280;12423;48.768;8.850;2022-12-07T03:59:14;96983.94;;;2.73;100.00
24306;BME280;12423;48.768;8.850;2022-12-07T04:01:17;96976.09;;;2.71;100.00
24306;BME280;12423;48.768;8.850;2022-12-07T04:03:18;96988.28;;;2.74;100.00
24306;BME280;12423;48.768;8.850;2022-12-07T04:05:19;96992.94;;;2.53;100.00
24306;BME280;12423;48.768;8.850;2022-12-07T04:07:20;96982.38;;;2.53;100.00
24306;BME280;12423;48.768;8.850;2022-12-07T04:09:21;96973.34;;;2.57;100.00
24306;BME280;12423;48.768;8.850;2022-12-07T04:11:22;96970.97;;;2.52;100.00
24306;BME280;12423;48.768;8.850;2022-12-07T04:13:23;96983.75;;;2.60;100.00
24306;BME280;12423;48.768;8.850;2022-12-07T04:15:24;96982.16;;;2.57;100.00
24306;BME280;12423;48.768;8.850;2022-12-07T04:17:25;96982.63;;;2.48;100.00
24306;BME280;12423;48.768;8.850;2022-12-07T04:19:28;96979.31;;;2.45;100.00
24306;BME280;12423;48.768;8.850;2022-12-07T04:21:29;96976.53;;;2.48;100.00
24306;BME280;12423;48.768;8.850;2022-12-07T04:23:30;96983.47;;;2.49;100.00
24306;BME280;12423;48.768;8.850;2022-12-07T04:25:31;96976.84;;;2.42;100.00
24306;BME280;12423;48.768;8.850;2022-12-07T04:27:32;96976.31;;;2.35;100.00
24306;BME280;12423;48.768;8.850;2022-12-07T04:29:33;96965.53;;;2.39;100.00
24306;BME280;12423;48.768;8.850;2022-12-07T04:31:35;96960.78;;;2.13;100.00
24306;BME280;12423;48.768;8.850;2022-12-07T04:33:35;96952.44;;;2.05;100.00
24306;BME280;12423;48.768;8.850;2022-12-07T04:35:37;96950.16;;;1.98;100.00
24306;BME280;12423;48.768;8.850;2022-12-07T04:37:38;96946.84;;;1.95;100.00
24306;BME280;12423;48.768;8.850;2022-12-07T04:39:40;96938.72;;;1.82;100.00
24306;BME280;12423;48.768;8.850;2022-12-07T04:41:41;96942.78;;;1.72;100.00
24306;BME280;12423;48.768;8.850;2022-12-07T04:43:42;96945.22;;;1.75;100.00
24306;BME280;12423;48.768;8.850;2022-12-07T04:45:49;96944.91;;;1.81;100.00
24306;BME280;12423;48.768;8.850;2022-12-07T04:47:51;96939.66;;;1.81;100.00
24306;BME280;12423;48.768;8.850;2022-12-07T04:49:52;96940.41;;;1.83;100.00
24306;BME280;12423;48.768;8.850;2022-12-07T04:51:53;96938.31;;;1.90;100.00
24306;BME280;12423;48.768;8.850;2022-12-07T04:53:55;96940.94;;;1.90;100.00
24306;BME280;12423;48.768;8.850;2022-12-07T04:55:56;96929.66;;;1.88;100.00
24306;BME280;12423;48.768;8.850;2022-12-07T04:57:57;96943.72;;;1.71;100.00
24306;BME280;12423;48.768;8.850;2022-12-07T04:59:57;96934.31;;;1.65;100.00
24306;BME280;12423;48.768;8.850;2022-12-07T05:01:58;96938.81;;;1.63;100.00
24306;BME280;12423;48.768;8.850;2022-12-07T05:04:00;96939.94;;;1.59;100.00
24306;BME280;12423;48.768;8.850;2022-12-07T05:06:01;96943.25;;;1.62;100.00
24306;BME280;12423;48.768;8.850;2022-12-07T05:08:02;96947.75;;;1.60;100.00
24306;BME280;12423;48.768;8.850;2022-12-07T05:10:03;96944.31;;;1.58;100.00
24306;BME280;12423;48.768;8.850;2022-12-07T05:12:04;96944.50;;;1.55;100.00
24306;BME280;12423;48.768;8.850;2022-12-07T05:14:09;96948.53;;;1.45;100.00
24306;BME280;12423;48.768;8.850;2022-12-07T05:16:11;96954.28;;;1.36;100.00
24306;BME280;12423;48.768;8.850;2022-12-07T05:18:12;96967.28;;;1.39;100.00
24306;BME280;12423;48.768;8.850;2022-12-07T05:20:13;96970.44;;;1.28;100.00
24306;BME280;12423;48.768;8.850;2022-12-07T05:22:14;96960.13;;;1.23;100.00
24306;BME280;12423;48.768;8.850;2022-12-07T05:24:16;96964.41;;;1.26;100.00
24306;BME280;12423;48.768;8.850;2022-12-07T05:26:17;96965.25;;;1.26;100.00
24306;BME280;12423;48.768;8.850;2022-12-07T05:28:18;96962.16;;;1.18;100.00
24306;BME280;12423;48.768;8.850;2022-12-07T05:30:19;96966.88;;;1.12;100.00
24306;BME280;12423;48.768;8.850;2022-12-07T05:32:20;96963.34;;;0.94;100.00
24306;BME280;12423;48.768;8.850;2022-12-07T05:34:21;96958.09;;;0.94;100.00
24306;BME280;12423;48.768;8.850;2022-12-07T05:36:22;96963.06;;;1.00;100.00
24306;BME280;12423;48.768;8.850;2022-12-07T05:38:23;96960.28;;;1.03;100.00
24306;BME280;12423;48.768;8.850;2022-12-07T05:40:25;96964.59;;;1.04;100.00
24306;BME280;12423;48.768;8.850;2022-12-07T05:42:26;96965.25;;;1.09;100.00
24306;BME280;12423;48.768;8.850;2022-12-07T05:44:27;96959.19;;;1.07;100.00
24306;BME280;12423;48.768;8.850;2022-12-07T05:46:28;96966.72;;;1.15;100.00
24306;BME280;12423;48.768;8.850;2022-12-07T05:48:29;96965.31;;;1.07;100.00
24306;BME280;12423;48.768;8.850;2022-12-07T05:50:30;96974.63;;;0.96;100.00
24306;BME280;12423;48.768;8.850;2022-12-07T05:52:37;96976.03;;;0.85;100.00
24306;BME280;12423;48.768;8.850;2022-12-07T05:54:38;96977.59;;;0.89;100.00
24306;BME280;12423;48.768;8.850;2022-12-07T05:56:39;96981.75;;;0.94;100.00
24306;BME280;12423;48.768;8.850;2022-12-07T05:58:40;96971.72;;;0.84;100.00
24306;BME280;12423;48.768;8.850;2022-12-07T06:01:19;96970.22;;;0.79;100.00
24306;BME280;12423;48.768;8.850;2022-12-07T06:03:20;96963.41;;;0.75;100.00
24306;BME280;12423;48.768;8.850;2022-12-07T06:05:21;96965.28;;;0.90;100.00
24306;BME280;12423;48.768;8.850;2022-12-07T06:07:22;96964.38;;;0.91;100.00
24306;BME280;12423;48.768;8.850;2022-12-07T06:09:24;96964.44;;;1.07;100.00
24306;BME280;12423;48.768;8.850;2022-12-07T06:11:25;96968.66;;;1.11;100.00
24306;BME280;12423;48.768;8.850;2022-12-07T06:13:45;96972.81;;;1.15;100.00
24306;BME280;12423;48.768;8.850;2022-12-07T06:15:47;96976.41;;;1.14;100.00
24306;BME280;12423;48.768;8.850;2022-12-07T06:17:48;96981.34;;;1.20;100.00
24306;BME280;12423;48.768;8.850;2022-12-07T06:19:49;96981.13;;;1.25;100.00
24306;BME280;12423;48.768;8.850;2022-12-07T06:21:50;96980.75;;;1.33;100.00
24306;BME280;12423;48.768;8.850;2022-12-07T06:23:51;96979.03;;;1.32;100.00
24306;BME280;12423;48.768;8.850;2022-12-07T06:25:52;96986.00;;;1.33;100.00
24306;BME280;12423;48.768;8.850;2022-12-07T06:27:53;96986.06;;;1.31;100.00
24306;BME280;12423;48.768;8.850;2022-12-07T06:29:55;96986.06;;;1.31;100.00
24306;BME280;12423;48.768;8.850;2022-12-07T06:31:57;96979.66;;;1.19;100.00
24306;BME280;12423;48.768;8.850;2022-12-07T06:33:59;96982.59;;;1.31;100.00
24306;BME280;12423;48.768;8.850;2022-12-07T06:36:00;96985.94;;;1.34;100.00
24306;BME280;12423;48.768;8.850;2022-12-07T06:38:01;96982.06;;;1.41;100.00
24306;BME280;12423;48.768;8.850;2022-12-07T06:40:02;96980.25;;;1.42;100.00
24306;BME280;12423;48.768;8.850;2022-12-07T06:42:03;96986.41;;;1.42;100.00
24306;BME280;12423;48.768;8.850;2022-12-07T06:44:05;96985.53;;;1.42;100.00
24306;BME280;12423;48.768;8.850;2022-12-07T06:46:06;96980.25;;;1.42;100.00
24306;BME280;12423;48.768;8.850;2022-12-07T06:48:07;96988.81;;;1.47;100.00
24306;BME280;12423;48.768;8.850;2022-12-07T06:50:09;96987.84;;;1.48;100.00
24306;BME280;12423;48.768;8.850;2022-12-07T06:52:10;96992.81;;;1.37;100.00
24306;BME280;12423;48.768;8.850;2022-12-07T06:54:12;96980.81;;;1.31;100.00
24306;BME280;12423;48.768;8.850;2022-12-07T06:56:14;96982.13;;;1.40;100.00
24306;BME280;12423;48.768;8.850;2022-12-07T06:58:15;96980.88;;;1.29;100.00
24306;BME280;12423;48.768;8.850;2022-12-07T07:00:16;96979.72;;;1.35;100.00
24306;BME280;12423;48.768;8.850;2022-12-07T07:02:17;96985.84;;;1.36;100.00
24306;BME280;12423;48.768;8.850;2022-12-07T07:04:18;96974.91;;;1.43;100.00
24306;BME280;12423;48.768;8.850;2022-12-07T07:06:20;96979.03;;;1.32;100.00
24306;BME280;12423;48.768;8.850;2022-12-07T07:08:21;96974.78;;;1.46;100.00
24306;BME280;12423;48.768;8.850;2022-12-07T07:10:21;96981.53;;;1.52;100.00
24306;BME280;12423;48.768;8.850;2022-12-07T07:12:22;96975.78;;;1.61;100.00
24306;BME280;12423;48.768;8.850;2022-12-07T07:14:23;96970.34;;;1.64;100.00
24306;BME280;12423;48.768;8.850;2022-12-07T07:16:24;96973.59;;;1.70;100.00
24306;BME280;12423;48.768;8.850;2022-12-07T07:18:26;96979.31;;;1.78;100.00
24306;BME280;12423;48.768;8.850;2022-12-07T07:20:27;96976.38;;;1.84;100.00
24306;BME280;12423;48.768;8.850;2022-12-07T07:22:28;96975.59;;;1.82;100.00
24306;BME280;12423;48.768;8.850;2022-12-07T07:24:29;96974.19;;;1.92;100.00
24306;BME280;12423;48.768;8.850;2022-12-07T07:26:30;96973.44;;;2.06;100.00
24306;BME280;12423;48.768;8.850;2022-12-07T07:28:31;96979.00;;;2.01;100.00
24306;BME280;12423;48.768;8.850;2022-12-07T07:30:32;96976.53;;;2.14;100.00
24306;BME280;12423;48.768;8.850;2022-12-07T07:32:34;96983.13;;;2.23;100.00
24306;BME280;12423;48.768;8.850;2022-12-07T07:34:35;96984.97;;;2.21;100.00
24306;BME280;12423;48.768;8.850;2022-12-07T07:36:36;96990.09;;;2.40;100.00
24306;BME280;12423;48.768;8.850;2022-12-07T07:38:37;96985.84;;;2.37;100.00
24306;BME280;12423;48.768;8.850;2022-12-07T07:40:38;96989.09;;;2.43;100.00
24306;BME280;12423;48.768;8.850;2022-12-07T07:42:39;96988.22;;;2.42;100.00
24306;BME280;12423;48.768;8.850;2022-12-07T07:44:40;96985.91;;;2.36;100.00
24306;BME280;12423;48.768;8.850;2022-12-07T07:46:40;96993.94;;;2.34;100.00
24306;BME280;12423;48.768;8.850;2022-12-07T07:48:41;96990.78;;;2.44;100.00
24306;BME280;12423;48.768;8.850;2022-12-07T07:50:42;97000.28;;;2.30;100.00
24306;BME280;12423;48.768;8.850;2022-12-07T07:52:44;96988.47;;;2.37;100.00
24306;BME280;12423;48.768;8.850;2022-12-07T07:54:45;96989.00;;;2.28;100.00
24306;BME280;12423;48.768;8.850;2022-12-07T07:56:46;96991.63;;;2.28;100.00
24306;BME280;12423;48.768;8.850;2022-12-07T07:58:47;96995.03;;;2.30;100.00
24306;BME280;12423;48.768;8.850;2022-12-07T08:00:48;96986.63;;;2.39;100.00
24306;BME280;12423;48.768;8.850;2022-12-07T08:02:49;96989.75;;;2.30;100.00
24306;BME280;12423;48.768;8.850;2022-12-07T08:04:50;96992.38;;;2.30;100.00
24306;BME280;12423;48.768;8.850;2022-12-07T08:06:51;96990.69;;;2.29;100.00
24306;BME280;12423;48.768;8.850;2022-12-07T08:08:52;96991.97;;;2.38;100.00
24306;BME280;12423;48.768;8.850;2022-12-07T08:10:53;96989.50;;;2.35;100.00
24306;BME280;12423;48.768;8.850;2022-12-07T08:12:54;96995.47;;;2.38;100.00
24306;BME280;12423;48.768;8.850;2022-12-07T08:15:13;96995.72;;;2.34;100.00
24306;BME280;12423;48.768;8.850;2022-12-07T08:17:14;97004.72;;;2.46;100.00
24306;BME280;12423;48.768;8.850;2022-12-07T08:19:15;97004.00;;;2.60;100.00
24306;BME280;12423;48.768;8.850;2022-12-07T08:21:16;97001.94;;;2.49;100.00
24306;BME280;12423;48.768;8.850;2022-12-07T08:23:17;97006.44;;;2.47;100.00
24306;BME280;12423;48.768;8.850;2022-12-07T08:25:18;96994.63;;;2.54;100.00
24306;BME280;12423;48.768;8.850;2022-12-07T08:27:19;97000.16;;;2.65;100.00
24306;BME280;12423;48.768;8.850;2022-12-07T08:29:20;96990.38;;;2.67;100.00
24306;BME280;12423;48.768;8.850;2022-12-07T08:31:21;97007.06;;;2.68;100.00
24306;BME280;12423;48.768;8.850;2022-12-07T08:33:22;97002.56;;;2.70;100.00
24306;BME280;12423;48.768;8.850;2022-12-07T08:35:24;96998.72;;;2.75;100.00
24306;BME280;12423;48.768;8.850;2022-12-07T08:37:25;96995.06;;;2.78;100.00
24306;BME280;12423;48.768;8.850;2022-12-07T08:39:26;97010.47;;;2.86;100.00
24306;BME280;12423;48.768;8.850;2022-12-07T08:41:27;97008.53;;;2.89;100.00
24306;BME280;12423;48.768;8.850;2022-12-07T08:43:28;97007.06;;;2.84;100.00
24306;BME280;12423;48.768;8.850;2022-12-07T08:45:29;97011.00;;;2.92;100.00
24306;BME280;12423;48.768;8.850;2022-12-07T08:47:35;97011.91;;;2.91;100.00
24306;BME280;12423;48.768;8.850;2022-12-07T08:49:41;97013.97;;;3.02;100.00
24306;BME280;12423;48.768;8.850;2022-12-07T08:51:42;97020.94;;;3.03;100.00
24306;BME280;12423;48.768;8.850;2022-12-07T08:53:44;97020.00;;;3.04;100.00
24306;BME280;12423;48.768;8.850;2022-12-07T08:55:46;97023.31;;;3.08;100.00
24306;BME280;12423;48.768;8.850;2022-12-07T08:57:47;97014.63;;;2.90;100.00
24306;BME280;12423;48.768;8.850;2022-12-07T08:59:48;97017.59;;;2.84;100.00
24306;BME280;12423;48.768;8.850;2022-12-07T09:01:49;97010.56;;;2.84;100.00
24306;BME280;12423;48.768;8.850;2022-12-07T09:03:50;97018.38;;;3.02;100.00
24306;BME280;12423;48.768;8.850;2022-12-07T09:05:53;97014.31;;;3.12;100.00
24306;BME280;12423;48.768;8.850;2022-12-07T09:07:56;97010.72;;;3.13;100.00
24306;BME280;12423;48.768;8.850;2022-12-07T09:09:58;97014.22;;;3.13;100.00
24306;BME280;12423;48.768;8.850;2022-12-07T09:11:59;97012.25;;;3.17;100.00
24306;BME280;12423;48.768;8.850;2022-12-07T09:14:00;97007.56;;;3.22;100.00
24306;BME280;12423;48.768;8.850;2022-12-07T09:16:01;97004.06;;;3.22;100.00
24306;BME280;12423;48.768;8.850;2022-12-07T09:18:02;97005.81;;;3.37;100.00
24306;BME280;12423;48.768;8.850;2022-12-07T09:20:04;97006.16;;;3.47;100.00
24306;BME280;12423;48.768;8.850;2022-12-07T09:22:06;97012.69;;;3.56;100.00
24306;BME280;12423;48.768;8.850;2022-12-07T09:24:08;97007.72;;;3.65;100.00
24306;BME280;12423;48.768;8.850;2022-12-07T09:26:10;97008.84;;;3.76;100.00
24306;BME280;12423;48.768;8.850;2022-12-07T09:28:11;97001.09;;;3.73;100.00
24306;BME280;12423;48.768;8.850;2022-12-07T09:30:12;97006.13;;;3.77;100.00
24306;BME280;12423;48.768;8.850;2022-12-07T09:32:13;97012.63;;;3.72;100.00
24306;BME280;12423;48.768;8.850;2022-12-07T09:34:14;97005.28;;;3.77;100.00
24306;BME280;12423;48.768;8.850;2022-12-07T09:36:15;97008.50;;;3.82;100.00
24306;BME280;12423;48.768;8.850;2022-12-07T09:38:16;97002.66;;;3.77;100.00
24306;BME280;12423;48.768;8.850;2022-12-07T09:40:21;97007.66;;;3.81;100.00
24306;BME280;12423;48.768;8.850;2022-12-07T09:42:29;97009.16;;;3.85;100.00
24306;BME280;12423;48.768;8.850;2022-12-07T09:44:34;97015.03;;;3.91;100.00
24306;BME280;12423;48.768;8.850;2022-12-07T09:46:39;97006.44;;;3.87;100.00
24306;BME280;12423;48.768;8.850;2022-12-07T09:48:41;97010.13;;;3.99;100.00
24306;BME280;12423;48.768;8.850;2022-12-07T09:50:43;97008.06;;;4.04;100.00
24306;BME280;12423;48.768;8.850;2022-12-07T09:52:45;97005.50;;;4.02;100.00
24306;BME280;12423;48.768;8.850;2022-12-07T09:54:48;97000.81;;;4.08;100.00
24306;BME280;12423;48.768;8.850;2022-12-07T09:56:49;97000.91;;;4.06;100.00
24306;BME280;12423;48.768;8.850;2022-12-07T09:58:57;96991.16;;;3.92;100.00
24306;BME280;12423;48.768;8.850;2022-12-07T10:01:11;96997.50;;;3.90;100.00
24306;BME280;12423;48.768;8.850;2022-12-07T10:03:13;96990.69;;;4.00;100.00
24306;BME280;12423;48.768;8.850;2022-12-07T10:05:20;96990.91;;;4.11;100.00
24306;BME280;12423;48.768;8.850;2022-12-07T10:07:23;96992.97;;;4.20;100.00
24306;BME280;12423;48.768;8.850;2022-12-07T10:09:25;96985.59;;;4.25;100.00
24306;BME280;12423;48.768;8.850;2022-12-07T10:11:27;96989.69;;;4.31;100.00
24306;BME280;12423;48.768;8.850;2022-12-07T10:13:40;96981.09;;;4.28;100.00
24306;BME280;12423;48.768;8.850;2022-12-07T10:15:53;96980.53;;;4.22;100.00
24306;BME280;12423;48.768;8.850;2022-12-07T10:17:54;96980.50;;;4.37;100.00
24306;BME280;12423;48.768;8.850;2022-12-07T10:20:13;96969.72;;;4.54;100.00
24306;BME280;12423;48.768;8.850;2022-12-07T10:22:16;96971.78;;;4.64;100.00
24306;BME280;12423;48.768;8.850;2022-12-07T10:24:17;96968.75;;;4.70;100.00
24306;BME280;12423;48.768;8.850;2022-12-07T10:28:34;96966.47;;;4.64;100.00
24306;BME280;12423;48.768;8.850;2022-12-07T10:30:55;96962.72;;;4.68;100.00
24306;BME280;12423;48.768;8.850;2022-12-07T10:32:57;96968.19;;;4.65;100.00
24306;BME280;12423;48.768;8.850;2022-12-07T10:35:29;96964.97;;;4.74;100.00
24306;BME280;12423;48.768;8.850;2022-12-07T10:37:40;96965.63;;;4.63;100.00
24306;BME280;12423;48.768;8.850;2022-12-07T10:41:57;96957.78;;;4.61;100.00
24306;BME280;12423;48.768;8.850;2022-12-07T10:43:58;96961.50;;;4.59;100.00
24306;BME280;12423;48.768;8.850;2022-12-07T10:46:13;96959.16;;;4.54;100.00
24306;BME280;12423;48.768;8.850;2022-12-07T10:48:33;96963.03;;;4.34;100.00
24306;BME280;12423;48.768;8.850;2022-12-07T10:51:12;96962.94;;;4.21;100.00
24306;BME280;12423;48.768;8.850;2022-12-07T10:53:42;96956.31;;;4.29;100.00
24306;BME280;12423;48.768;8.850;2022-12-07T11:00:17;96944.63;;;4.47;100.00
24306;BME280;12423;48.768;8.850;2022-12-07T11:02:40;96948.94;;;4.48;100.00
24306;BME280;12423;48.768;8.850;2022-12-07T11:05:09;96929.50;;;4.49;100.00
24306;BME280;12423;48.768;8.850;2022-12-07T11:07:37;96937.72;;;4.45;100.00
24306;BME280;12423;48.768;8.850;2022-12-07T11:10:05;96945.38;;;4.35;100.00
24306;BME280;12423;48.768;8.850;2022-12-07T11:15:26;96942.06;;;4.17;100.00
24306;BME280;12423;48.768;8.850;2022-12-07T11:17:01;96930.06;;;4.25;100.00
24306;BME280;12423;48.768;8.850;2022-12-07T11:21:30;96936.13;;;4.28;100.00
24306;BME280;12423;48.768;8.850;2022-12-07T11:23:52;96932.53;;;4.29;100.00
24306;BME280;12423;48.768;8.850;2022-12-07T11:26:07;96927.81;;;4.19;100.00
24306;BME280;12423;48.768;8.850;2022-12-07T11:28:31;96927.44;;;4.11;100.00
24306;BME280;12423;48.768;8.850;2022-12-07T11:31:08;96919.31;;;4.29;100.00
24306;BME280;12423;48.768;8.850;2022-12-07T11:33:38;96921.09;;;4.42;100.00
24306;BME280;12423;48.768;8.850;2022-12-07T11:36:05;96917.22;;;4.34;100.00
24306;BME280;12423;48.768;8.850;2022-12-07T11:38:18;96921.00;;;4.44;100.00
24306;BME280;12423;48.768;8.850;2022-12-07T11:40:28;96915.09;;;4.53;100.00